Time;durP1;ratioP1;P1;durP2;ratioP2;P2;SDS_P1;SDS_P2;PMS_P1;PMS_P2;Temp;Humidity;BMP_temperature;BMP_pressure;BME280_temperature;BME280_humidity;BME280_pressure;Samples;Min_cycle;Max_cycle;Signal;HPM_P1;HPM_P2
2024/04/03 00:01:07;;;;;;;;;;;;;;;10.65;51.97;97457.03;5036483;28;19956;-87
2024/04/03 00:03:54;;;;;;;;;;;;;;;10.62;51.66;97463.09;5036291;28;19925;-90
2024/04/03 00:06:41;;;;;;;;;;;;;;;10.72;51.94;97456.53;5043354;28;19925;-85
2024/04/03 00:09:28;;;;;;;;;;;;;;;10.68;51.89;97461.78;5042520;28;19931;-89
2024/04/03 00:12:15;;;;;;;;;;;;;;;10.70;51.75;97461.47;5034379;28;19977;-89
2024/04/03 00:15:01;;;;;;;;;;;;;;;10.71;51.51;97463.88;5044077;28;19933;-89
2024/04/03 00:17:48;;;;;;;;;;;;;;;10.73;51.43;97458.91;5043657;28;19924;-76
2024/04/03 00:20:37;;;;;;;;;;;;;;;10.75;51.73;97453.16;5045118;28;20454;-78
2024/04/03 00:23:24;;;;;;;;;;;;;;;10.81;51.86;97451.84;5044238;28;20073;-76
2024/04/03 00:26:11;;;;;;;;;;;;;;;10.75;51.51;97455.84;5046467;28;19924;-76
2024/04/03 00:28:57;;;;;;;;;;;;;;;10.77;51.31;97450.13;5034149;28;20351;-78
2024/04/03 00:31:46;;;;;;;;;;;;;;;10.75;51.59;97448.50;5047805;28;19928;-78
2024/04/03 00:34:32;;;;;;;;;;;;;;;10.77;51.69;97448.19;5031464;28;19956;-77
2024/04/03 00:37:20;;;;;;;;;;;;;;;10.81;51.86;97449.13;5040214;28;19929;-76
2024/04/03 00:40:07;;;;;;;;;;;;;;;10.72;51.44;97446.44;5032163;28;19924;-78
2024/04/03 00:42:54;;;;;;;;;;;;;;;10.76;51.24;97441.19;5048447;28;20392;-77
2024/04/03 00:45:40;;;;;;;;;;;;;;;10.80;51.81;97447.53;5042204;28;20364;-77
2024/04/03 00:48:28;;;;;;;;;;;;;;;10.74;51.87;97438.75;5031549;28;20061;-76
2024/04/03 00:51:14;;;;;;;;;;;;;;;10.67;51.93;97443.09;5045428;28;19933;-77
2024/04/03 00:54:05;;;;;;;;;;;;;;;10.74;51.75;97438.75;5043064;28;19924;-79
2024/04/03 00:56:52;;;;;;;;;;;;;;;10.77;51.87;97440.06;5032021;28;20033;-80
2024/04/03 00:59:39;;;;;;;;;;;;;;;10.82;52.21;97448.03;5043808;28;19931;-77
2024/04/03 01:02:25;;;;;;;;;;;;;;;10.81;51.77;97443.69;5033970;28;20442;-77
2024/04/03 01:05:12;;;;;;;;;;;;;;;10.79;51.76;97426.94;5044675;28;20023;-78
2024/04/03 01:07:59;;;;;;;;;;;;;;;10.80;51.60;97435.88;5042998;28;20384;-76
2024/04/03 01:10:48;;;;;;;;;;;;;;;10.66;52.00;97430.66;5037781;28;19931;-76
2024/04/03 01:13:34;;;;;;;;;;;;;;;10.70;52.50;97423.44;5045280;28;19932;-78
2024/04/03 01:16:21;;;;;;;;;;;;;;;10.76;52.10;97411.28;5041369;28;19925;-78
2024/04/03 01:19:07;;;;;;;;;;;;;;;10.69;52.30;97410.97;5038518;28;19925;-79
2024/04/03 01:21:54;;;;;;;;;;;;;;;10.69;52.24;97410.97;5039002;28;19924;-78
2024/04/03 01:24:43;;;;;;;;;;;;;;;10.72;51.93;97408.41;5037090;28;19933;-76
2024/04/03 01:27:30;;;;;;;;;;;;;;;10.67;52.19;97405.88;5037331;28;20023;-76
2024/04/03 01:30:16;;;;;;;;;;;;;;;10.66;52.30;97404.28;5054060;28;20025;-78
2024/04/03 01:33:04;;;;;;;;;;;;;;;10.68;51.92;97409.38;5038805;28;19924;-76
2024/04/03 01:35:52;;;;;;;;;;;;;;;10.67;52.28;97400.44;5049233;28;19924;-78
2024/04/03 01:38:42;;;;;;;;;;;;;;;10.74;51.90;97405.38;5044155;28;19933;-77
2024/04/03 01:41:29;;;;;;;;;;;;;;;10.75;52.18;97401.53;5037060;28;19948;-78
2024/04/03 01:44:16;;;;;;;;;;;;;;;10.66;52.75;97396.13;5049762;28;19924;-77
2024/04/03 01:47:04;;;;;;;;;;;;;;;10.56;52.43;97390.25;5049938;28;19928;-79
2024/04/03 01:49:53;;;;;;;;;;;;;;;10.57;52.64;97389.91;5042652;28;19924;-79
2024/04/03 01:52:40;;;;;;;;;;;;;;;10.62;52.31;97386.22;5039568;28;19978;-77
2024/04/03 01:55:26;;;;;;;;;;;;;;;10.60;52.01;97383.03;5047121;28;20004;-77
2024/04/03 01:58:15;;;;;;;;;;;;;;;10.61;51.86;97384.66;5036791;28;20007;-77
2024/04/03 02:01:01;;;;;;;;;;;;;;;10.48;52.26;97389.94;5057472;28;19970;-77
2024/04/03 02:03:48;;;;;;;;;;;;;;;10.58;52.37;97390.72;5034317;28;20357;-77
2024/04/03 02:06:35;;;;;;;;;;;;;;;10.57;52.05;97375.53;5047729;28;19924;-80
2024/04/03 02:09:22;;;;;;;;;;;;;;;10.48;51.99;97372.84;5036391;28;19975;-77
2024/04/03 02:12:08;;;;;;;;;;;;;;;10.51;51.75;97358.63;5023634;28;19955;-76
2024/04/03 02:14:57;;;;;;;;;;;;;;;10.45;52.06;97366.16;5041538;28;19943;-76
2024/04/03 02:17:44;;;;;;;;;;;;;;;10.42;51.91;97358.63;5033730;28;20379;-76
2024/04/03 02:20:32;;;;;;;;;;;;;;;10.37;52.67;97358.81;5043324;28;19940;-77
2024/04/03 02:23:18;;;;;;;;;;;;;;;10.32;52.63;97356.25;5034635;28;19940;-78
2024/04/03 02:26:06;;;;;;;;;;;;;;;10.30;52.78;97353.09;5028678;28;20016;-77
2024/04/03 02:28:52;;;;;;;;;;;;;;;10.31;52.79;97346.53;5047763;28;19924;-78
2024/04/03 02:31:40;;;;;;;;;;;;;;;10.24;52.89;97359.81;5033337;28;20019;-76
2024/04/03 02:34:27;;;;;;;;;;;;;;;10.25;53.16;97360.59;5055613;28;20451;-77
2024/04/03 02:37:14;;;;;;;;;;;;;;;10.31;52.40;97364.72;5044078;28;19929;-76
2024/04/03 02:40:00;;;;;;;;;;;;;;;10.22;52.56;97359.28;5033924;28;19928;-88
2024/04/03 02:42:47;;;;;;;;;;;;;;;10.22;52.72;97354.66;5048074;28;20028;-87
2024/04/03 02:45:34;;;;;;;;;;;;;;;10.23;52.86;97352.75;5049668;28;19931;-89
2024/04/03 02:48:22;;;;;;;;;;;;;;;10.21;52.79;97352.25;5041512;28;20427;-87
2024/04/03 02:51:10;;;;;;;;;;;;;;;10.28;52.64;97349.09;5048977;28;19928;-90
2024/04/03 02:53:56;;;;;;;;;;;;;;;10.27;52.66;97339.34;5043083;28;19932;-87
2024/04/03 02:56:46;;;;;;;;;;;;;;;10.26;52.57;97341.25;5042047;28;20031;-89
2024/04/03 02:59:34;;;;;;;;;;;;;;;10.34;52.17;97343.19;5048854;28;19932;-87
2024/04/03 03:02:22;;;;;;;;;;;;;;;10.25;52.46;97342.38;5040811;28;19925;-88
2024/04/03 03:05:09;;;;;;;;;;;;;;;10.30;52.11;97341.44;5043271;28;19933;-88
2024/04/03 03:07:56;;;;;;;;;;;;;;;10.33;52.18;97324.47;5049111;28;20399;-87
2024/04/03 03:10:43;;;;;;;;;;;;;;;10.18;51.97;97323.84;5047221;28;20002;-88
2024/04/03 03:13:30;;;;;;;;;;;;;;;10.17;52.19;97329.59;5045655;28;20371;-87
2024/04/03 03:16:19;;;;;;;;;;;;;;;10.23;52.40;97323.72;5044017;28;19932;-90
2024/04/03 03:19:07;;;;;;;;;;;;;;;10.15;52.91;97320.97;5046560;28;19982;-89
2024/04/03 03:21:55;;;;;;;;;;;;;;;10.14;52.79;97313.97;5039713;28;19924;-89
2024/04/03 03:24:42;;;;;;;;;;;;;;;10.15;52.95;97312.84;5040689;28;19924;-87
2024/04/03 03:27:28;;;;;;;;;;;;;;;10.12;53.35;97308.88;5045903;28;19982;-87
2024/04/03 03:30:15;;;;;;;;;;;;;;;10.16;52.89;97298.13;5044188;28;20379;-88
2024/04/03 03:33:02;;;;;;;;;;;;;;;10.16;52.92;97298.94;5037946;28;19925;-88
2024/04/03 03:35:52;;;;;;;;;;;;;;;10.07;53.13;97300.91;5043563;28;20487;-87
2024/04/03 03:38:41;;;;;;;;;;;;;;;10.07;53.08;97305.53;5045066;28;19970;-87
2024/04/03 03:41:28;;;;;;;;;;;;;;;10.10;53.18;97305.66;5036050;28;19956;-89
2024/04/03 03:44:16;;;;;;;;;;;;;;;10.10;53.18;97307.56;5036081;28;19932;-87
2024/04/03 03:47:02;;;;;;;;;;;;;;;10.08;52.93;97301.69;5044869;28;19932;-87
2024/04/03 03:52:55;;;;;;;;;;;;;;;10.13;52.82;97301.53;5059885;28;19925;-95
2024/04/03 03:55:44;;;;;;;;;;;;;;;10.15;52.83;97299.28;5034208;28;20291;-95
2024/04/03 03:58:32;;;;;;;;;;;;;;;10.17;52.91;97288.88;5058881;28;19929;-94
2024/04/03 04:01:19;;;;;;;;;;;;;;;10.10;52.86;97288.59;5051171;28;19925;-95
2024/04/03 04:04:06;;;;;;;;;;;;;;;10.08;53.13;97285.41;5064037;28;19924;-96
2024/04/03 04:06:54;;;;;;;;;;;;;;;10.16;53.05;97287.28;5039993;28;19932;-95
2024/04/03 04:09:40;;;;;;;;;;;;;;;10.21;53.03;97285.19;5035624;28;19925;-94
2024/04/03 04:12:30;;;;;;;;;;;;;;;10.30;52.83;97279.78;5037661;28;20296;-95
2024/04/03 04:15:18;;;;;;;;;;;;;;;10.40;52.60;97275.91;5043237;28;20057;-95
2024/04/03 04:18:05;;;;;;;;;;;;;;;10.45;52.57;97267.59;5037293;28;20269;-95
2024/04/03 04:20:55;;;;;;;;;;;;;;;10.47;52.42;97270.75;5033737;28;19925;-94
2024/04/03 04:23:42;;;;;;;;;;;;;;;10.53;52.13;97265.94;5057874;28;20313;-96
2024/04/03 04:26:29;;;;;;;;;;;;;;;10.64;52.15;97265.25;5040471;28;19924;-96
2024/04/03 04:29:18;;;;;;;;;;;;;;;10.65;51.61;97263.31;5047125;28;20552;-94
2024/04/03 04:32:04;;;;;;;;;;;;;;;10.70;51.53;97253.06;5044393;28;19924;-94
2024/04/03 04:34:52;;;;;;;;;;;;;;;10.84;50.62;97252.84;5043272;28;20049;-95
2024/04/03 04:37:40;;;;;;;;;;;;;;;10.81;50.70;97250.78;5062347;28;19925;-94
2024/04/03 04:40:27;;;;;;;;;;;;;;;10.79;50.80;97247.59;5047324;28;20448;-94
2024/04/03 04:43:15;;;;;;;;;;;;;;;10.85;50.89;97248.19;5042938;28;20024;-93
2024/04/03 04:46:05;;;;;;;;;;;;;;;10.87;50.56;97246.75;5045345;28;19954;-95
2024/04/03 04:48:51;;;;;;;;;;;;;;;10.89;50.25;97246.44;5036135;28;20330;-94
2024/04/03 04:51:39;;;;;;;;;;;;;;;10.84;50.32;97244.69;5037016;28;19928;-95
2024/04/03 04:54:25;;;;;;;;;;;;;;;10.86;50.13;97242.44;5052033;28;19925;-95
2024/04/03 04:57:15;;;;;;;;;;;;;;;10.85;50.36;97243.56;5046845;28;20455;-95
2024/04/03 05:00:05;;;;;;;;;;;;;;;10.71;50.28;97243.81;5034321;28;19929;-93
2024/04/03 05:02:54;;;;;;;;;;;;;;;10.76;50.27;97237.41;5040180;28;19928;-93
2024/04/03 05:05:40;;;;;;;;;;;;;;;10.74;50.41;97245.06;5035503;28;20395;-95
2024/04/03 05:08:29;;;;;;;;;;;;;;;10.68;50.72;97243.66;5047633;28;19939;-93
2024/04/03 05:11:15;;;;;;;;;;;;;;;10.73;50.37;97249.72;5033414;28;19976;-95
2024/04/03 05:14:05;;;;;;;;;;;;;;;10.77;50.75;97251.78;5055803;28;19924;-95
2024/04/03 05:16:51;;;;;;;;;;;;;;;10.69;50.81;97243.34;5047702;28;19929;-91
2024/04/03 05:19:40;;;;;;;;;;;;;;;10.75;50.43;97238.50;5039884;28;19925;-94
2024/04/03 05:22:28;;;;;;;;;;;;;;;10.59;50.67;97240.19;5049595;28;19970;-91
2024/04/03 05:25:15;;;;;;;;;;;;;;;10.78;50.50;97237.84;5059558;28;19978;-91
2024/04/03 05:28:03;;;;;;;;;;;;;;;10.84;50.35;97246.63;5054180;28;19925;-91
2024/04/03 05:30:49;;;;;;;;;;;;;;;10.99;50.00;97244.13;5055953;28;20035;-89
2024/04/03 05:33:36;;;;;;;;;;;;;;;11.11;49.35;97242.59;5045158;28;19924;-87
2024/04/03 05:36:24;;;;;;;;;;;;;;;11.15;49.50;97246.25;5053413;28;19925;-93
2024/04/03 05:39:12;;;;;;;;;;;;;;;11.14;49.37;97244.66;5041947;28;19928;-91
2024/04/03 05:41:58;;;;;;;;;;;;;;;11.25;49.30;97248.59;5054044;28;19924;-91
2024/04/03 05:44:45;;;;;;;;;;;;;;;11.24;49.46;97241.56;5047509;28;19924;-92
2024/04/03 05:47:32;;;;;;;;;;;;;;;11.33;49.47;97236.81;5041296;28;19928;-93
2024/04/03 05:50:19;;;;;;;;;;;;;;;11.35;49.41;97250.13;5050060;28;20380;-95
2024/04/03 05:53:08;;;;;;;;;;;;;;;11.31;49.34;97246.47;5064793;28;19987;-92
2024/04/03 05:55:56;;;;;;;;;;;;;;;11.34;49.31;97243.84;5060476;28;19925;-94
2024/04/03 05:58:42;;;;;;;;;;;;;;;11.21;49.06;97244.94;5070030;28;19924;-93
2024/04/03 06:01:30;;;;;;;;;;;;;;;11.32;49.21;97242.59;5070778;28;19924;-93
2024/04/03 06:04:17;;;;;;;;;;;;;;;11.34;49.13;97252.00;5037063;28;20022;-94
2024/04/03 06:07:06;;;;;;;;;;;;;;;11.41;49.49;97248.78;5046125;28;20127;-94
2024/04/03 06:09:53;;;;;;;;;;;;;;;11.37;49.28;97254.06;5048356;28;19948;-86
2024/04/03 06:12:40;;;;;;;;;;;;;;;11.39;49.25;97251.03;5039168;28;20020;-88
2024/04/03 06:15:29;;;;;;;;;;;;;;;11.43;49.44;97244.59;5043873;28;19932;-88
2024/04/03 06:18:17;;;;;;;;;;;;;;;11.38;49.70;97244.78;5044626;28;19975;-88
2024/04/03 06:21:10;;;;;;;;;;;;;;;11.42;49.69;97245.72;5045147;28;19924;-88
2024/04/03 06:23:57;;;;;;;;;;;;;;;11.49;49.52;97240.53;5052388;28;19924;-86
2024/04/03 06:26:44;;;;;;;;;;;;;;;11.48;49.85;97249.81;5043724;28;20065;-85
2024/04/03 06:29:34;;;;;;;;;;;;;;;11.44;49.78;97248.88;5045659;28;19929;-87
2024/04/03 06:32:21;;;;;;;;;;;;;;;11.43;50.16;97258.19;5039378;28;21690;-87
2024/04/03 06:35:08;;;;;;;;;;;;;;;11.48;49.78;97259.91;5043307;28;19971;-89
2024/04/03 06:37:55;;;;;;;;;;;;;;;11.43;49.73;97257.41;5041465;28;19928;-89
2024/04/03 06:40:41;;;;;;;;;;;;;;;11.52;50.00;97256.19;5041257;28;20356;-88
2024/04/03 06:43:30;;;;;;;;;;;;;;;11.54;49.65;97253.94;5047006;28;19925;-88
2024/04/03 06:46:16;;;;;;;;;;;;;;;11.55;49.48;97252.78;5041386;28;19971;-87
2024/04/03 06:49:03;;;;;;;;;;;;;;;11.51;49.80;97246.44;5037088;28;20007;-87
2024/04/03 06:51:49;;;;;;;;;;;;;;;11.47;49.71;97253.69;5044065;28;19925;-87
2024/04/03 06:54:37;;;;;;;;;;;;;;;11.37;49.52;97251.34;5040346;28;20016;-87
2024/04/03 06:57:24;;;;;;;;;;;;;;;11.47;49.62;97256.41;5032849;28;20007;-87
2024/04/03 07:00:13;;;;;;;;;;;;;;;11.51;49.66;97254.59;5047515;28;19925;-89
2024/04/03 07:03:01;;;;;;;;;;;;;;;11.54;49.71;97264.81;5049922;28;19932;-87
2024/04/03 07:05:50;;;;;;;;;;;;;;;11.48;50.46;97263.44;5037469;28;20054;-88
2024/04/03 07:08:36;;;;;;;;;;;;;;;11.59;50.26;97260.31;5036793;28;19924;-87
2024/04/03 07:11:29;;;;;;;;;;;;;;;11.57;50.01;97252.47;5053375;28;20334;-87
2024/04/03 07:14:15;;;;;;;;;;;;;;;11.55;49.75;97252.00;5036167;28;19966;-87
2024/04/03 07:17:04;;;;;;;;;;;;;;;11.67;49.67;97251.28;5036599;28;19928;-88
2024/04/03 07:19:52;;;;;;;;;;;;;;;11.55;50.41;97260.16;5042762;28;19924;-96
2024/04/03 07:22:44;;;;;;;;;;;;;;;11.55;49.66;97254.72;5039593;28;20287;-96
2024/04/03 07:25:32;;;;;;;;;;;;;;;11.63;50.31;97251.16;5053808;28;19935;-96
2024/04/03 07:28:26;;;;;;;;;;;;;;;11.76;49.36;97260.13;5052463;28;19925;-96
2024/04/03 07:31:18;;;;;;;;;;;;;;;11.70;49.64;97264.19;5054931;28;19955;-96
2024/04/03 07:34:14;;;;;;;;;;;;;;;11.82;50.13;97258.81;5070023;28;19924;-96
2024/04/03 07:37:01;;;;;;;;;;;;;;;11.93;49.73;97265.47;5058307;28;19938;-96
2024/04/03 07:39:51;;;;;;;;;;;;;;;11.91;49.40;97264.19;5060986;28;19931;-96
2024/04/03 07:42:43;;;;;;;;;;;;;;;11.96;49.31;97272.94;5086742;28;19935;-96
2024/04/03 07:45:36;;;;;;;;;;;;;;;12.03;49.24;97270.47;5072959;28;19932;-96
2024/04/03 07:51:37;;;;;;;;;;;;;;;12.10;49.02;97274.59;5042986;28;19925;-96
2024/04/03 07:54:26;;;;;;;;;;;;;;;12.23;49.14;97279.72;5060417;28;19920;-96
2024/04/03 07:57:15;;;;;;;;;;;;;;;12.28;48.58;97271.31;5056176;28;19924;-96
2024/04/03 08:00:04;;;;;;;;;;;;;;;12.34;48.54;97274.63;5045438;28;19924;-96
2024/04/03 08:03:05;;;;;;;;;;;;;;;12.48;48.06;97277.81;5046364;28;20399;-96
2024/04/03 08:05:53;;;;;;;;;;;;;;;12.42;48.02;97283.84;5037191;28;20287;-95
2024/04/03 08:08:41;;;;;;;;;;;;;;;12.41;48.13;97274.06;5043009;28;19931;-96
2024/04/03 08:11:32;;;;;;;;;;;;;;;12.50;47.89;97272.03;5063976;28;19915;-96
2024/04/03 08:14:20;;;;;;;;;;;;;;;12.44;47.59;97282.34;5062916;28;19992;-96
2024/04/03 08:17:08;;;;;;;;;;;;;;;12.56;48.02;97271.47;5048501;28;19939;-96
2024/04/03 08:19:55;;;;;;;;;;;;;;;12.61;47.47;97269.66;5049353;28;19932;-96
2024/04/03 08:22:53;;;;;;;;;;;;;;;12.69;47.32;97276.94;5052892;28;19951;-97
2024/04/03 08:25:53;;;;;;;;;;;;;;;12.70;47.34;97275.81;5074808;28;19908;-96
2024/04/03 08:28:40;;;;;;;;;;;;;;;12.80;47.79;97275.34;5053616;28;19946;-80
2024/04/03 08:31:26;;;;;;;;;;;;;;;12.72;47.09;97270.78;5045290;28;19932;-79
2024/04/03 08:34:14;;;;;;;;;;;;;;;12.74;47.78;97268.53;5068827;28;19967;-80
2024/04/03 08:37:01;;;;;;;;;;;;;;;12.73;47.48;97280.56;5038217;28;20472;-77
2024/04/03 08:39:50;;;;;;;;;;;;;;;12.67;47.51;97276.47;5040387;28;19980;-80
2024/04/03 08:42:42;;;;;;;;;;;;;;;12.59;47.39;97283.63;5054286;28;19963;-77
2024/04/03 08:45:29;;;;;;;;;;;;;;;12.68;47.72;97284.31;5072595;28;20435;-79
2024/04/03 08:48:16;;;;;;;;;;;;;;;12.79;47.80;97280.00;5049052;28;19950;-80
2024/04/03 08:51:03;;;;;;;;;;;;;;;12.82;47.24;97286.69;5057109;28;19932;-78
2024/04/03 08:53:50;;;;;;;;;;;;;;;12.81;47.53;97276.94;5057496;28;20343;-79
2024/04/03 08:56:36;;;;;;;;;;;;;;;12.70;47.33;97287.50;5054171;28;19950;-79
2024/04/03 08:59:24;;;;;;;;;;;;;;;12.80;47.53;97288.97;5052360;28;20014;-79
2024/04/03 09:02:10;;;;;;;;;;;;;;;12.77;47.35;97292.38;5049080;28;19924;-76
2024/04/03 09:04:58;;;;;;;;;;;;;;;12.80;47.29;97291.72;5045906;28;19964;-76
2024/04/03 09:07:44;;;;;;;;;;;;;;;12.77;46.70;97303.28;5047416;28;19977;-81
2024/04/03 09:10:32;;;;;;;;;;;;;;;12.86;47.73;97306.69;5040189;28;19934;-85
2024/04/03 09:13:18;;;;;;;;;;;;;;;12.94;47.43;97311.22;5047652;28;19929;-82
2024/04/03 09:16:06;;;;;;;;;;;;;;;12.99;46.78;97305.53;5051964;28;20376;-83
2024/04/03 09:19:03;;;;;;;;;;;;;;;13.10;47.23;97306.69;5056507;28;19924;-77
2024/04/03 09:21:50;;;;;;;;;;;;;;;13.22;46.57;97305.13;5046303;28;19931;-79
2024/04/03 09:24:38;;;;;;;;;;;;;;;13.27;46.29;97313.06;5033453;28;19924;-78
2024/04/03 09:27:26;;;;;;;;;;;;;;;13.32;46.62;97310.13;5047977;28;19940;-78
2024/04/03 09:30:13;;;;;;;;;;;;;;;13.24;45.40;97308.28;5048828;28;19928;-75
2024/04/03 09:33:02;;;;;;;;;;;;;;;13.20;45.49;97304.63;5039067;28;20447;-75
2024/04/03 09:35:48;;;;;;;;;;;;;;;13.29;45.72;97300.66;5038299;28;20451;-77
2024/04/03 09:38:36;;;;;;;;;;;;;;;13.35;45.58;97295.78;5028460;28;19924;-91
2024/04/03 09:41:24;;;;;;;;;;;;;;;13.41;45.21;97299.84;5055626;28;20392;-88
2024/04/03 09:44:11;;;;;;;;;;;;;;;13.43;45.03;97311.22;5031053;28;19924;-93
2024/04/03 09:46:59;;;;;;;;;;;;;;;13.44;45.00;97309.28;5043557;28;20019;-93
2024/04/03 09:49:50;;;;;;;;;;;;;;;13.49;45.92;97315.31;5041613;28;19968;-94
2024/04/03 09:52:36;;;;;;;;;;;;;;;13.53;46.89;97316.22;5041793;28;19935;-95
2024/04/03 09:55:26;;;;;;;;;;;;;;;13.66;48.23;97321.63;5041283;28;20015;-96
2024/04/03 09:58:13;;;;;;;;;;;;;;;13.58;47.31;97324.16;5049835;28;19927;-95
2024/04/03 10:01:04;;;;;;;;;;;;;;;13.43;46.70;97321.34;5040220;28;19928;-91
2024/04/03 10:04:00;;;;;;;;;;;;;;;13.35;47.31;97321.13;5055658;28;19924;-91
2024/04/03 10:06:49;;;;;;;;;;;;;;;13.22;46.78;97321.50;5046762;28;19924;-90
2024/04/03 10:09:37;;;;;;;;;;;;;;;13.32;47.61;97319.09;5040962;28;19970;-96
2024/04/03 10:12:24;;;;;;;;;;;;;;;13.49;47.23;97314.50;5038589;28;19925;-96
2024/04/03 10:15:21;;;;;;;;;;;;;;;13.54;48.36;97314.28;5046989;28;19924;-96
2024/04/03 10:18:15;;;;;;;;;;;;;;;13.61;49.20;97315.25;5043301;28;19925;-96
2024/04/03 10:21:03;;;;;;;;;;;;;;;13.55;49.12;97322.09;5056177;28;19940;-96
2024/04/03 10:24:05;;;;;;;;;;;;;;;13.75;51.57;97311.38;5058186;28;19908;-96
2024/04/03 10:26:53;;;;;;;;;;;;;;;13.87;50.49;97308.59;5059382;28;19955;-94
2024/04/03 10:29:41;;;;;;;;;;;;;;;13.95;49.65;97315.81;5036955;28;19925;-95
2024/04/03 10:32:35;;;;;;;;;;;;;;;13.91;49.43;97306.75;5084005;28;19915;-98
2024/04/03 10:35:29;;;;;;;;;;;;;;;13.83;49.25;97308.47;5076682;28;19925;-96
2024/04/03 10:38:15;;;;;;;;;;;;;;;13.91;48.79;97304.03;5030537;28;19925;-96
2024/04/03 10:41:13;;;;;;;;;;;;;;;13.96;50.45;97309.25;5050429;28;20004;-96
2024/04/03 10:43:59;;;;;;;;;;;;;;;14.07;50.81;97310.34;5051247;28;19933;-88
2024/04/03 10:46:46;;;;;;;;;;;;;;;14.20;50.88;97302.06;5058039;28;20453;-87
2024/04/03 10:49:34;;;;;;;;;;;;;;;14.20;49.93;97313.00;5043469;28;19924;-82
2024/04/03 10:52:21;;;;;;;;;;;;;;;14.15;48.89;97311.31;5047958;28;19929;-90
2024/04/03 10:55:07;;;;;;;;;;;;;;;14.13;49.64;97306.19;5043070;28;19931;-88
2024/04/03 10:57:55;;;;;;;;;;;;;;;14.23;49.84;97306.84;5041339;28;19925;-89
2024/04/03 11:00:42;;;;;;;;;;;;;;;14.17;49.18;97306.31;5053421;28;20005;-88
2024/04/03 11:03:29;;;;;;;;;;;;;;;14.09;49.76;97304.50;5048901;28;19928;-88
2024/04/03 11:06:15;;;;;;;;;;;;;;;14.09;49.48;97301.78;5047291;28;19932;-88
2024/04/03 11:09:02;;;;;;;;;;;;;;;14.05;50.10;97296.22;5036539;28;20071;-87
2024/04/03 11:11:52;;;;;;;;;;;;;;;14.04;49.80;97282.91;5048242;28;19924;-87
2024/04/03 11:14:41;;;;;;;;;;;;;;;14.15;50.76;97284.78;5043345;28;20331;-85
2024/04/03 11:17:27;;;;;;;;;;;;;;;14.29;49.13;97278.13;5042342;28;19931;-87
2024/04/03 11:20:15;;;;;;;;;;;;;;;14.19;49.13;97281.38;5045706;28;20348;-87
2024/04/03 11:23:01;;;;;;;;;;;;;;;14.19;48.65;97289.56;5046182;28;20643;-81
2024/04/03 11:25:48;;;;;;;;;;;;;;;14.14;48.35;97285.94;5052981;28;20307;-83
2024/04/03 11:28:38;;;;;;;;;;;;;;;14.05;49.03;97279.81;5055944;28;20057;-82
2024/04/03 11:31:26;;;;;;;;;;;;;;;13.97;47.69;97269.88;5052456;28;20380;-82
2024/04/03 11:34:13;;;;;;;;;;;;;;;14.01;48.36;97276.22;5057944;28;19964;-80
2024/04/03 11:37:00;;;;;;;;;;;;;;;14.09;48.63;97272.53;5060288;28;19934;-84
2024/04/03 11:39:46;;;;;;;;;;;;;;;13.98;48.56;97273.38;5058732;28;20023;-81
2024/04/03 11:42:35;;;;;;;;;;;;;;;14.00;49.39;97260.97;5050982;28;20022;-83
2024/04/03 11:45:21;;;;;;;;;;;;;;;14.09;49.27;97258.88;5051852;28;19936;-84
2024/04/03 11:48:10;;;;;;;;;;;;;;;14.20;48.67;97255.63;5071645;28;19997;-84
2024/04/03 11:50:56;;;;;;;;;;;;;;;14.32;48.29;97266.47;5057326;28;19931;-82
2024/04/03 11:53:48;;;;;;;;;;;;;;;14.33;48.28;97262.63;5047266;28;20382;-82
2024/04/03 11:56:36;;;;;;;;;;;;;;;14.30;49.55;97252.38;5060837;28;20322;-82
2024/04/03 11:59:22;;;;;;;;;;;;;;;14.39;49.20;97250.28;5055274;28;19924;-95
2024/04/03 12:02:09;;;;;;;;;;;;;;;14.47;48.54;97240.31;5033562;28;19924;-95
2024/04/03 12:04:57;;;;;;;;;;;;;;;14.52;48.80;97238.13;5051729;28;19925;-94
2024/04/03 12:07:47;;;;;;;;;;;;;;;14.45;46.82;97229.72;5050756;28;19932;-95
2024/04/03 12:10:33;;;;;;;;;;;;;;;14.50;47.75;97221.31;5034860;28;20023;-95
2024/04/03 12:13:20;;;;;;;;;;;;;;;14.61;47.71;97210.63;5040168;28;19935;-87
2024/04/03 12:16:07;;;;;;;;;;;;;;;14.67;47.00;97210.00;5044762;28;19925;-87
2024/04/03 12:19:12;;;;;;;;;;;;;;;14.75;46.58;97207.41;5048515;28;19935;-88
2024/04/03 12:22:00;;;;;;;;;;;;;;;14.77;46.37;97207.88;5058131;28;20160;-85
2024/04/03 12:24:47;;;;;;;;;;;;;;;14.75;47.47;97202.72;5049933;28;19931;-88
2024/04/03 12:27:33;;;;;;;;;;;;;;;14.84;47.29;97202.56;5058718;28;19928;-88
2024/04/03 12:30:20;;;;;;;;;;;;;;;14.98;47.22;97204.81;5042318;28;20495;-86
2024/04/03 12:33:07;;;;;;;;;;;;;;;15.04;46.32;97204.19;5055355;28;19924;-87
2024/04/03 12:35:54;;;;;;;;;;;;;;;15.15;45.59;97198.94;5068252;28;19932;-87
2024/04/03 12:38:41;;;;;;;;;;;;;;;15.27;46.00;97201.53;5062764;28;19925;-87
2024/04/03 12:41:28;;;;;;;;;;;;;;;15.35;45.83;97197.03;5055977;28;19924;-87
2024/04/03 12:44:15;;;;;;;;;;;;;;;15.31;45.80;97191.47;5053217;28;20007;-89
2024/04/03 12:47:06;;;;;;;;;;;;;;;15.32;45.32;97189.53;5047593;28;19985;-92
2024/04/03 12:49:53;;;;;;;;;;;;;;;15.44;45.42;97183.88;5051601;28;19924;-88
2024/04/03 12:52:40;;;;;;;;;;;;;;;15.48;45.53;97184.75;5041657;28;20281;-89
2024/04/03 12:55:28;;;;;;;;;;;;;;;15.53;45.81;97179.00;5055010;28;19955;-88
2024/04/03 12:58:15;;;;;;;;;;;;;;;15.47;44.21;97172.22;5060325;28;19928;-88
2024/04/03 13:01:02;;;;;;;;;;;;;;;15.58;44.83;97173.22;5052061;28;19932;-87
2024/04/03 13:03:52;;;;;;;;;;;;;;;15.60;43.86;97181.88;5057224;28;20021;-88
2024/04/03 13:06:38;;;;;;;;;;;;;;;15.64;44.45;97171.81;5042061;28;19928;-88
2024/04/03 13:09:25;;;;;;;;;;;;;;;15.48;43.96;97179.28;5050590;28;19924;-87
2024/04/03 13:12:12;;;;;;;;;;;;;;;15.57;44.59;97171.66;5052562;28;19967;-87
2024/04/03 13:14:59;;;;;;;;;;;;;;;15.55;43.61;97173.94;5060679;28;19943;-86
2024/04/03 13:17:46;;;;;;;;;;;;;;;15.55;44.01;97168.47;5056780;28;19924;-87
2024/04/03 13:20:35;;;;;;;;;;;;;;;15.41;44.02;97165.47;5051118;28;19928;-88
2024/04/03 13:23:21;;;;;;;;;;;;;;;15.44;44.34;97157.31;5051040;28;20368;-85
2024/04/03 13:26:08;;;;;;;;;;;;;;;15.23;43.77;97170.56;5046071;28;19935;-88
2024/04/03 13:28:56;;;;;;;;;;;;;;;15.19;43.63;97162.31;5054667;28;19929;-91
2024/04/03 13:31:44;;;;;;;;;;;;;;;15.14;43.75;97165.31;5051958;28;19925;-93
2024/04/03 13:34:31;;;;;;;;;;;;;;;15.17;43.90;97175.53;5039490;28;19931;-89
2024/04/03 13:37:19;;;;;;;;;;;;;;;15.09;44.26;97167.56;5054081;28;19968;-89
2024/04/03 13:40:08;;;;;;;;;;;;;;;15.07;43.90;97176.09;5061343;28;19931;-91
2024/04/03 13:42:59;;;;;;;;;;;;;;;15.07;43.99;97178.03;5056828;28;19924;-87
2024/04/03 13:45:48;;;;;;;;;;;;;;;15.07;44.72;97187.03;5057901;28;19925;-89
2024/04/03 13:48:35;;;;;;;;;;;;;;;14.96;44.80;97187.97;5040803;28;19935;-90
2024/04/03 13:51:21;;;;;;;;;;;;;;;14.92;44.57;97194.16;5031659;28;19925;-90
2024/04/03 13:54:09;;;;;;;;;;;;;;;14.81;45.90;97193.13;5053861;28;19931;-89
2024/04/03 13:56:55;;;;;;;;;;;;;;;14.70;47.12;97202.22;5038654;28;19924;-96
2024/04/03 13:59:44;;;;;;;;;;;;;;;14.55;48.44;97198.38;5039950;28;20403;-79
2024/04/03 14:02:32;;;;;;;;;;;;;;;14.55;49.66;97204.63;5050303;28;20371;-91
2024/04/03 14:05:21;;;;;;;;;;;;;;;14.43;50.51;97207.41;5047489;28;19925;-91
2024/04/03 14:08:07;;;;;;;;;;;;;;;14.32;51.86;97211.81;5039262;28;19924;-91
2024/04/03 14:10:54;;;;;;;;;;;;;;;14.30;53.30;97225.06;5049217;28;19939;-90
2024/04/03 14:13:40;;;;;;;;;;;;;;;14.13;52.90;97228.94;5036774;28;19970;-89
2024/04/03 14:16:28;;;;;;;;;;;;;;;14.13;53.76;97231.66;5043757;28;19924;-91
2024/04/03 14:19:15;;;;;;;;;;;;;;;13.92;55.00;97231.88;5048672;28;20384;-91
2024/04/03 14:22:03;;;;;;;;;;;;;;;13.78;55.60;97236.94;5058281;28;20449;-90
2024/04/03 14:24:49;;;;;;;;;;;;;;;13.83;56.70;97234.75;5050050;28;19924;-93
2024/04/03 14:27:38;;;;;;;;;;;;;;;13.81;56.28;97234.31;5045888;28;19951;-91
2024/04/03 14:30:24;;;;;;;;;;;;;;;13.86;56.01;97230.56;5052123;28;19932;-92
2024/04/03 14:33:11;;;;;;;;;;;;;;;13.78;56.84;97226.81;5042371;28;19924;-93
2024/04/03 14:36:00;;;;;;;;;;;;;;;13.65;56.97;97229.97;5034178;28;19924;-90
2024/04/03 14:38:47;;;;;;;;;;;;;;;13.63;58.03;97228.38;5046140;28;19929;-89
2024/04/03 14:41:34;;;;;;;;;;;;;;;13.68;57.67;97226.53;5040164;28;20288;-91